Time;durP1;ratioP1;P1;durP2;ratioP2;P2;SDS_P1;SDS_P2;PMS_P1;PMS_P2;Temp;Humidity;BMP_temperature;BMP_pressure;BME280_temperature;BME280_humidity;BME280_pressure;Samples;Min_cycle;Max_cycle;Signal;HPM_P1;HPM_P2
2021/07/29 00:02:10;;;;;;;4.53;1.08;;;16.40;99.90;;;;;;5050215;28;20036;-84
2021/07/29 00:04:36;;;;;;;3.05;1.00;;;16.30;99.90;;;;;;5065589;28;20407;-84
2021/07/29 00:07:03;;;;;;;2.38;0.80;;;16.30;99.90;;;;;;5055174;28;20051;-85
2021/07/29 00:09:29;;;;;;;3.45;0.80;;;16.20;99.90;;;;;;5065324;28;20415;-84
2021/07/29 00:11:56;;;;;;;3.60;0.90;;;16.20;99.90;;;;;;5065526;28;20052;-83
2021/07/29 00:14:22;;;;;;;2.33;1.08;;;16.20;99.90;;;;;;5082593;28;20036;-84
2021/07/29 00:16:51;;;;;;;3.17;0.90;;;16.10;99.90;;;;;;5066405;28;20044;-83
2021/07/29 00:19:17;;;;;;;5.60;0.93;;;16.10;99.90;;;;;;5034036;28;20040;-84
2021/07/29 00:21:44;;;;;;;3.53;0.85;;;16.20;99.90;;;;;;5062784;28;20400;-83
2021/07/29 00:24:11;;;;;;;5.28;1.23;;;16.20;99.90;;;;;;5049172;28;20051;-83
2021/07/29 00:26:39;;;;;;;3.38;1.15;;;16.20;99.90;;;;;;5065858;28;20449;-83
2021/07/29 00:29:06;;;;;;;2.28;1.00;;;16.20;99.90;;;;;;5065651;28;20051;-83
2021/07/29 00:31:35;;;;;;;2.90;0.98;;;16.20;99.90;;;;;;5065808;28;20055;-83
2021/07/29 00:34:03;;;;;;;4.10;0.88;;;16.20;99.90;;;;;;5065607;28;20067;-83
2021/07/29 00:36:31;;;;;;;1.60;0.80;;;16.20;99.90;;;;;;5065566;28;20047;-84
2021/07/29 00:39:02;;;;;;;4.25;0.90;;;16.10;99.90;;;;;;5049924;28;20051;-84
2021/07/29 00:41:29;;;;;;;2.58;0.95;;;16.10;99.90;;;;;;5065462;28;20055;-83
2021/07/29 00:44:03;;;;;;;3.35;0.85;;;16.10;99.90;;;;;;5066727;28;20037;-83
2021/07/29 00:46:33;;;;;;;4.68;0.95;;;16.00;99.90;;;;;;5082131;28;20048;-83
2021/07/29 00:49:01;;;;;;;3.13;0.88;;;16.00;99.90;;;;;;5082156;28;20032;-83
2021/07/29 00:51:28;;;;;;;4.43;1.08;;;16.00;99.90;;;;;;5082526;28;20548;-83
2021/07/29 00:53:56;;;;;;;3.22;0.98;;;16.00;99.90;;;;;;5082982;28;20044;-83
2021/07/29 00:56:23;;;;;;;4.80;1.02;;;15.90;99.90;;;;;;5081998;28;20040;-83
2021/07/29 00:58:49;;;;;;;3.83;0.93;;;15.90;99.90;;;;;;5065176;28;20056;-83
2021/07/29 01:01:16;;;;;;;2.30;0.80;;;15.90;99.90;;;;;;5032862;28;20048;-84
2021/07/29 01:03:42;;;;;;;3.80;0.82;;;15.90;99.90;;;;;;5066718;28;20040;-83
2021/07/29 01:06:08;;;;;;;3.85;1.00;;;15.80;99.90;;;;;;5080922;28;20487;-83
2021/07/29 01:08:59;;;;;;;3.92;1.08;;;15.80;99.90;;;;;;5083953;28;20052;-83
2021/07/29 01:11:25;;;;;;;3.20;0.88;;;15.70;99.90;;;;;;5067135;28;20051;-83
2021/07/29 01:13:52;;;;;;;2.15;0.85;;;15.70;99.90;;;;;;5066282;28;20387;-83
2021/07/29 01:16:18;;;;;;;2.40;0.73;;;15.70;99.90;;;;;;5081493;28;20028;-83
2021/07/29 01:18:44;;;;;;;3.40;0.70;;;15.70;99.90;;;;;;5082511;28;20069;-83
2021/07/29 01:21:11;;;;;;;3.92;0.95;;;15.70;99.90;;;;;;5032317;28;20044;-83
2021/07/29 01:23:37;;;;;;;3.53;1.02;;;15.60;99.90;;;;;;5066350;28;20052;-83
2021/07/29 01:26:03;;;;;;;3.10;0.85;;;15.60;99.90;;;;;;5063962;28;20039;-83
2021/07/29 01:28:30;;;;;;;6.40;1.00;;;15.60;99.90;;;;;;5052944;28;20033;-83
2021/07/29 01:30:56;;;;;;;6.28;1.23;;;15.60;99.90;;;;;;5065517;28;20036;-84
2021/07/29 01:33:23;;;;;;;3.85;0.90;;;15.60;99.90;;;;;;5082532;28;20348;-83
2021/07/29 01:35:49;;;;;;;5.38;1.70;;;15.70;99.90;;;;;;5081026;28;20036;-83
2021/07/29 01:38:15;;;;;;;9.43;1.50;;;15.70;99.90;;;;;;5065857;28;20040;-83
2021/07/29 01:40:42;;;;;;;4.68;0.77;;;15.80;99.90;;;;;;5031770;28;20411;-83
2021/07/29 01:43:08;;;;;;;4.13;0.73;;;15.90;99.90;;;;;;5049114;28;20024;-83
2021/07/29 01:45:35;;;;;;;5.40;1.48;;;15.90;99.90;;;;;;5042896;28;20056;-84
2021/07/29 01:48:01;;;;;;;5.13;1.27;;;16.00;99.90;;;;;;5045671;28;20048;-83
2021/07/29 01:50:28;;;;;;;3.67;1.00;;;16.00;99.90;;;;;;5060986;28;20051;-83
2021/07/29 01:52:54;;;;;;;3.92;0.80;;;16.00;99.90;;;;;;5062420;28;20478;-82
2021/07/29 01:55:20;;;;;;;3.50;0.73;;;16.00;99.90;;;;;;5011354;28;20048;-83
2021/07/29 01:57:47;;;;;;;5.57;0.80;;;16.10;99.90;;;;;;5045163;28;20531;-83
2021/07/29 02:00:14;;;;;;;4.13;0.80;;;16.00;99.90;;;;;;5063468;28;20045;-84
2021/07/29 02:02:40;;;;;;;7.03;1.00;;;16.10;99.90;;;;;;5065795;28;20056;-83
2021/07/29 02:05:07;;;;;;;6.30;1.00;;;16.10;99.90;;;;;;5064250;28;20047;-84
2021/07/29 02:07:34;;;;;;;3.35;0.88;;;16.10;99.90;;;;;;5067176;28;20032;-83
2021/07/29 02:10:00;;;;;;;3.47;0.85;;;16.20;99.90;;;;;;5066821;28;20035;-83
2021/07/29 02:12:26;;;;;;;3.75;0.90;;;16.10;99.90;;;;;;5065666;28;20058;-83
2021/07/29 02:14:53;;;;;;;3.30;0.70;;;16.10;99.90;;;;;;5031104;28;20028;-83
2021/07/29 02:17:20;;;;;;;3.75;0.90;;;16.10;99.90;;;;;;5048881;28;20067;-83
2021/07/29 02:19:47;;;;;;;4.97;1.17;;;16.00;99.90;;;;;;5081497;28;21628;-83
2021/07/29 02:22:15;;;;;;;5.15;0.95;;;15.90;99.90;;;;;;5063842;28;20036;-83
2021/07/29 02:24:41;;;;;;;4.28;0.98;;;15.90;99.90;;;;;;5046355;28;20044;-83
2021/07/29 02:27:08;;;;;;;2.88;0.90;;;15.80;99.90;;;;;;5052037;28;20032;-83
2021/07/29 02:29:35;;;;;;;5.38;1.23;;;15.70;99.90;;;;;;5052846;28;20044;-83
2021/07/29 02:32:01;;;;;;;8.10;1.33;;;15.70;99.90;;;;;;5048630;28;20037;-84
2021/07/29 02:34:27;;;;;;;6.47;1.00;;;15.70;99.90;;;;;;5013608;28;20386;-84
2021/07/29 02:36:54;;;;;;;7.30;1.30;;;15.60;99.90;;;;;;5064532;28;20037;-83
2021/07/29 02:39:20;;;;;;;6.80;1.15;;;15.50;99.90;;;;;;5014476;28;20052;-83
2021/07/29 02:41:47;;;;;;;6.40;1.60;;;15.50;99.90;;;;;;5048449;28;20052;-84
2021/07/29 02:44:15;;;;;;;5.75;0.95;;;15.40;99.90;;;;;;5032373;28;20048;-83
2021/07/29 02:46:42;;;;;;;6.65;0.90;;;15.40;99.90;;;;;;5054751;28;20054;-83
2021/07/29 02:49:09;;;;;;;7.13;1.65;;;15.40;99.90;;;;;;5070461;28;20047;-84
2021/07/29 02:51:35;;;;;;;10.23;1.27;;;15.40;99.90;;;;;;5071898;28;20039;-83
2021/07/29 02:54:01;;;;;;;6.10;1.55;;;15.40;99.90;;;;;;5038245;28;20483;-83
2021/07/29 02:56:28;;;;;;;4.90;1.58;;;15.30;99.90;;;;;;5086602;28;20513;-83
2021/07/29 02:58:54;;;;;;;6.80;1.10;;;15.30;99.90;;;;;;5087646;28;20031;-83
2021/07/29 03:01:20;;;;;;;6.57;0.90;;;15.30;99.90;;;;;;5054523;28;20478;-83
2021/07/29 03:03:47;;;;;;;3.92;1.08;;;15.40;99.90;;;;;;5106754;28;20036;-84
2021/07/29 03:06:13;;;;;;;6.15;1.00;;;15.40;99.90;;;;;;5088098;28;20048;-84
2021/07/29 03:08:39;;;;;;;5.40;1.20;;;15.50;99.90;;;;;;5053437;28;20059;-84
2021/07/29 03:11:09;;;;;;;7.55;1.10;;;15.50;99.90;;;;;;5075148;27;20032;-84
2021/07/29 03:13:36;;;;;;;5.97;1.25;;;15.50;99.90;;;;;;5088244;28;20051;-83
2021/07/29 03:16:02;;;;;;;10.85;1.10;;;15.50;99.90;;;;;;5088911;28;20042;-83
2021/07/29 03:18:28;;;;;;;3.75;0.80;;;15.40;99.90;;;;;;5088026;28;20034;-83
2021/07/29 03:20:55;;;;;;;7.45;1.08;;;15.50;99.90;;;;;;5073382;28;20035;-83
2021/07/29 03:23:22;;;;;;;6.90;1.10;;;15.50;99.90;;;;;;5073861;28;20054;-83
2021/07/29 03:25:53;;;;;;;5.13;1.27;;;15.60;99.90;;;;;;5053062;28;20040;-83
2021/07/29 03:28:20;;;;;;;4.47;1.05;;;15.60;99.90;;;;;;5106022;28;20046;-84
2021/07/29 03:30:47;;;;;;;8.15;1.10;;;15.70;99.90;;;;;;5086788;28;20075;-84
2021/07/29 03:33:14;;;;;;;6.70;1.27;;;15.70;99.90;;;;;;5088505;28;20031;-83
2021/07/29 03:35:40;;;;;;;9.35;1.20;;;15.70;99.90;;;;;;5053944;28;20046;-83
2021/07/29 03:38:08;;;;;;;7.93;1.20;;;15.80;99.90;;;;;;5070022;28;20043;-83
2021/07/29 03:40:36;;;;;;;5.63;1.25;;;15.80;99.90;;;;;;5086784;28;20042;-83
2021/07/29 03:43:03;;;;;;;8.73;1.45;;;15.80;99.90;;;;;;5086706;28;20051;-83
2021/07/29 03:45:31;;;;;;;8.30;1.33;;;15.80;99.90;;;;;;5085486;28;20047;-83
2021/07/29 03:47:58;;;;;;;8.77;1.00;;;15.80;99.90;;;;;;5105964;28;20036;-83
2021/07/29 03:50:25;;;;;;;11.00;1.10;;;15.80;99.90;;;;;;5091083;28;20043;-83
2021/07/29 03:52:52;;;;;;;5.03;1.10;;;15.90;99.90;;;;;;5106110;28;20031;-83
2021/07/29 03:55:18;;;;;;;8.98;1.42;;;15.90;99.90;;;;;;5106568;27;20375;-83
2021/07/29 03:57:45;;;;;;;7.40;1.00;;;15.90;99.90;;;;;;5068580;28;20051;-83
2021/07/29 04:00:11;;;;;;;5.70;1.00;;;15.90;99.90;;;;;;5053015;28;20051;-83
2021/07/29 04:02:39;;;;;;;7.50;1.73;;;15.90;99.90;;;;;;5088258;28;20040;-83
2021/07/29 04:05:07;;;;;;;6.88;1.73;;;15.90;99.90;;;;;;5085737;28;20035;-83
2021/07/29 04:07:34;;;;;;;6.70;1.02;;;16.00;99.90;;;;;;5054089;28;20044;-83
2021/07/29 04:10:01;;;;;;;8.30;1.50;;;16.00;99.90;;;;;;5086556;28;20390;-83
2021/07/29 04:12:27;;;;;;;6.38;1.60;;;16.00;99.90;;;;;;5104374;27;20042;-83
2021/07/29 04:14:54;;;;;;;11.77;1.80;;;16.00;99.90;;;;;;5068674;28;20062;-77
2021/07/29 04:17:20;;;;;;;8.13;1.92;;;15.90;99.90;;;;;;5069287;28;20043;-77
2021/07/29 04:19:47;;;;;;;7.32;1.88;;;15.80;99.90;;;;;;5052255;28;20043;-82
2021/07/29 04:22:13;;;;;;;8.18;1.30;;;15.80;99.90;;;;;;5072630;28;20048;-82
2021/07/29 04:24:40;;;;;;;8.75;2.17;;;15.70;99.90;;;;;;5051271;28;20050;-82
2021/07/29 04:27:06;;;;;;;8.35;1.30;;;15.70;99.90;;;;;;5087193;28;20353;-82
2021/07/29 04:29:34;;;;;;;10.55;2.17;;;15.70;99.90;;;;;;5085870;28;20052;-77
2021/07/29 04:32:02;;;;;;;8.85;1.52;;;15.70;99.90;;;;;;5069486;28;20406;-76
2021/07/29 04:34:28;;;;;;;5.25;1.33;;;15.60;99.90;;;;;;5103354;28;20035;-75
2021/07/29 04:36:57;;;;;;;12.70;2.55;;;15.50;99.90;;;;;;5104497;28;20035;-75
2021/07/29 04:39:25;;;;;;;11.10;1.85;;;15.30;99.90;;;;;;5086193;28;20046;-74
2021/07/29 04:41:51;;;;;;;7.20;1.60;;;15.10;99.90;;;;;;5085750;28;20035;-73
2021/07/29 04:44:19;;;;;;;4.20;1.27;;;14.90;99.90;;;;;;5084310;28;20071;-75
2021/07/29 04:46:45;;;;;;;7.50;1.40;;;14.80;99.90;;;;;;5103548;28;20868;-75
2021/07/29 04:49:12;;;;;;;10.10;1.70;;;14.80;99.90;;;;;;5085717;28;20036;-75
2021/07/29 04:51:40;;;;;;;8.55;2.05;;;14.70;99.90;;;;;;5104491;28;20448;-75
2021/07/29 04:54:07;;;;;;;6.47;1.55;;;14.70;99.90;;;;;;5085969;28;20030;-75
2021/07/29 04:56:33;;;;;;;6.15;1.55;;;14.70;99.90;;;;;;5067931;28;20047;-75
2021/07/29 04:59:00;;;;;;;5.90;1.38;;;14.60;99.90;;;;;;5085615;28;20378;-75
2021/07/29 05:01:26;;;;;;;12.55;2.83;;;14.60;99.90;;;;;;5085980;28;20035;-74
2021/07/29 05:03:53;;;;;;;8.68;2.80;;;14.50;99.90;;;;;;5104738;28;20043;-74
2021/07/29 05:06:19;;;;;;;15.13;2.40;;;14.40;99.90;;;;;;5086220;28;20046;-74
2021/07/29 05:08:45;;;;;;;10.85;2.25;;;14.40;99.90;;;;;;5052520;28;20038;-74
2021/07/29 05:11:12;;;;;;;9.98;2.15;;;14.40;99.90;;;;;;5088296;28;20596;-74
2021/07/29 05:13:38;;;;;;;9.48;1.73;;;14.40;99.90;;;;;;5069917;28;20050;-75
2021/07/29 05:16:05;;;;;;;8.98;2.08;;;14.50;99.90;;;;;;5084718;28;20027;-75
2021/07/29 05:18:36;;;;;;;9.82;2.03;;;14.60;99.90;;;;;;5104469;28;20040;-75
2021/07/29 05:21:03;;;;;;;9.38;2.50;;;14.60;99.90;;;;;;5086588;28;20461;-75
2021/07/29 05:23:30;;;;;;;10.25;2.75;;;14.70;99.90;;;;;;5085779;28;20032;-74
2021/07/29 05:25:57;;;;;;;7.80;2.03;;;14.80;99.90;;;;;;5102671;28;20032;-75
2021/07/29 05:28:23;;;;;;;5.97;1.83;;;15.00;99.90;;;;;;5068403;28;20055;-75
2021/07/29 05:30:50;;;;;;;7.93;2.65;;;15.10;99.90;;;;;;5085355;28;20031;-75
2021/07/29 05:33:16;;;;;;;6.70;2.10;;;15.20;99.90;;;;;;5085498;28;20042;-75
2021/07/29 05:35:43;;;;;;;14.10;2.50;;;15.30;99.90;;;;;;5104679;28;20035;-75
2021/07/29 05:38:10;;;;;;;13.02;2.58;;;15.30;99.90;;;;;;5107779;28;20032;-75
2021/07/29 05:40:37;;;;;;;11.60;2.83;;;15.40;99.90;;;;;;5088502;28;20533;-76
2021/07/29 05:43:03;;;;;;;13.63;2.42;;;15.60;99.90;;;;;;5072126;28;20046;-75
2021/07/29 05:45:32;;;;;;;12.30;2.25;;;15.70;99.90;;;;;;5105887;28;20055;-76
2021/07/29 05:47:59;;;;;;;12.27;2.50;;;15.90;99.90;;;;;;5072772;28;20040;-75
2021/07/29 05:50:26;;;;;;;11.82;2.58;;;15.90;99.90;;;;;;5106136;28;20414;-76
2021/07/29 05:52:52;;;;;;;8.00;2.35;;;15.80;99.90;;;;;;5106856;28;20035;-75
2021/07/29 05:55:18;;;;;;;8.70;1.58;;;15.70;99.90;;;;;;5068887;28;20040;-75
2021/07/29 05:57:45;;;;;;;17.05;3.22;;;15.60;99.90;;;;;;5087670;28;20673;-75
2021/07/29 06:00:12;;;;;;;13.57;2.65;;;15.60;99.90;;;;;;5088278;28;20040;-75
2021/07/29 06:02:38;;;;;;;9.07;2.00;;;15.50;99.90;;;;;;5107043;28;20050;-75
2021/07/29 06:05:05;;;;;;;17.20;2.28;;;15.50;99.90;;;;;;5086415;28;20058;-75
2021/07/29 06:07:31;;;;;;;11.32;2.25;;;15.50;99.90;;;;;;5054533;28;20063;-75
2021/07/29 06:09:58;;;;;;;14.93;2.20;;;15.40;99.90;;;;;;5069596;28;20055;-75
2021/07/29 06:12:24;;;;;;;9.77;1.73;;;15.40;99.90;;;;;;5088775;28;20027;-76
2021/07/29 06:14:55;;;;;;;10.02;2.22;;;15.40;99.90;;;;;;5086851;28;20039;-75
2021/07/29 06:17:27;;;;;;;12.80;2.40;;;15.40;99.90;;;;;;5088407;28;20036;-75
2021/07/29 06:19:54;;;;;;;10.15;1.90;;;15.50;99.90;;;;;;5087539;28;20036;-75
2021/07/29 06:22:21;;;;;;;11.13;2.20;;;15.60;99.90;;;;;;5091203;28;20044;-76
2021/07/29 06:24:47;;;;;;;12.43;2.38;;;15.60;99.90;;;;;;5087351;28;20023;-75
2021/07/29 06:27:13;;;;;;;12.25;2.92;;;15.70;99.90;;;;;;5106623;28;20035;-75
2021/07/29 06:29:40;;;;;;;10.63;2.88;;;15.60;99.90;;;;;;5087625;28;20038;-75
2021/07/29 06:32:07;;;;;;;14.25;2.97;;;15.50;99.90;;;;;;5106834;27;20058;-75
2021/07/29 06:34:36;;;;;;;13.98;3.08;;;15.50;99.90;;;;;;5104733;28;20036;-75
2021/07/29 06:37:03;;;;;;;20.92;3.40;;;15.60;99.90;;;;;;5091242;28;20050;-75
2021/07/29 06:39:29;;;;;;;11.05;2.22;;;15.80;99.90;;;;;;5087616;28;20054;-75
2021/07/29 06:41:55;;;;;;;11.50;3.67;;;16.00;99.90;;;;;;5084449;28;20035;-75
2021/07/29 06:44:22;;;;;;;13.55;2.90;;;16.30;99.90;;;;;;5087279;28;20040;-75
2021/07/29 06:46:48;;;;;;;13.30;2.75;;;16.60;99.90;;;;;;5054592;28;20043;-76
2021/07/29 06:49:15;;;;;;;11.50;2.67;;;16.90;99.90;;;;;;5069816;28;20044;-76
2021/07/29 06:51:41;;;;;;;13.77;2.75;;;17.10;99.90;;;;;;5071374;28;20521;-76
2021/07/29 06:54:08;;;;;;;10.10;2.50;;;17.10;99.90;;;;;;5105439;28;20031;-76
2021/07/29 06:56:34;;;;;;;13.98;2.40;;;17.00;99.90;;;;;;5069610;28;20035;-75
2021/07/29 06:59:01;;;;;;;12.52;2.90;;;17.10;99.90;;;;;;5105096;28;20035;-76
2021/07/29 07:01:27;;;;;;;8.30;2.83;;;17.10;99.90;;;;;;5087450;28;20398;-76
2021/07/29 07:03:53;;;;;;;12.98;3.20;;;17.30;99.90;;;;;;5106333;28;20058;-74
2021/07/29 07:06:20;;;;;;;15.07;3.20;;;17.40;99.90;;;;;;5069316;28;20043;-74
2021/07/29 07:08:46;;;;;;;8.73;1.95;;;17.50;99.90;;;;;;5105741;28;20032;-74
2021/07/29 07:11:17;;;;;;;15.85;3.28;;;17.60;99.90;;;;;;5106025;28;20040;-74
2021/07/29 07:13:45;;;;;;;14.98;3.55;;;17.60;99.90;;;;;;5106110;28;20474;-74
2021/07/29 07:16:12;;;;;;;9.93;2.50;;;17.60;99.90;;;;;;5104575;28;20031;-74
2021/07/29 07:18:39;;;;;;;11.70;2.67;;;17.50;99.90;;;;;;5069857;28;20485;-74
2021/07/29 07:21:07;;;;;;;8.40;2.50;;;17.50;99.90;;;;;;5105896;28;20042;-75
2021/07/29 07:23:35;;;;;;;11.57;1.98;;;17.40;99.90;;;;;;5088108;28;20043;-75
2021/07/29 07:26:02;;;;;;;14.10;2.42;;;17.40;99.90;;;;;;5104190;28;20050;-75
2021/07/29 07:28:29;;;;;;;9.27;1.73;;;17.40;99.90;;;;;;5106200;28;20078;-75
2021/07/29 07:30:55;;;;;;;8.70;1.65;;;17.50;99.90;;;;;;5088773;28;20367;-75
2021/07/29 07:33:22;;;;;;;9.77;1.80;;;17.80;99.90;;;;;;5087755;28;20413;-75
2021/07/29 07:35:49;;;;;;;10.00;1.85;;;17.80;99.90;;;;;;5086686;28;20039;-75
2021/07/29 07:38:16;;;;;;;11.60;1.92;;;18.00;99.90;;;;;;5087841;28;20027;-75
2021/07/29 07:40:42;;;;;;;11.15;2.05;;;18.00;99.90;;;;;;5086830;28;20390;-75
2021/07/29 07:43:09;;;;;;;9.63;1.88;;;18.00;99.90;;;;;;5070648;28;20127;-75
2021/07/29 07:45:37;;;;;;;11.43;2.10;;;18.00;99.90;;;;;;5084906;28;20048;-75
2021/07/29 07:48:04;;;;;;;13.00;1.77;;;18.00;99.90;;;;;;5070029;28;20517;-75
2021/07/29 07:50:41;;;;;;;13.82;2.00;;;17.90;99.90;;;;;;5054905;28;20059;-75
2021/07/29 07:53:07;;;;;;;11.10;1.77;;;17.90;99.90;;;;;;5086751;28;20437;-75
2021/07/29 07:55:37;;;;;;;10.02;1.70;;;17.90;99.90;;;;;;5067367;28;20051;-74
2021/07/29 07:58:03;;;;;;;7.32;1.85;;;18.10;99.90;;;;;;5084811;28;20065;-75
2021/07/29 08:00:29;;;;;;;9.80;1.40;;;18.30;99.90;;;;;;5068264;28;20036;-75
2021/07/29 08:02:56;;;;;;;10.77;2.05;;;18.40;99.90;;;;;;5085595;28;20028;-75
2021/07/29 08:05:22;;;;;;;8.18;1.55;;;18.50;99.90;;;;;;5102820;28;20035;-75
2021/07/29 08:07:49;;;;;;;11.32;2.97;;;18.70;99.90;;;;;;5069850;28;20514;-75
2021/07/29 08:10:15;;;;;;;8.45;1.45;;;18.80;99.90;;;;;;5086178;28;20031;-75
2021/07/29 08:12:42;;;;;;;10.10;1.90;;;18.90;99.90;;;;;;5073022;28;20039;-75
2021/07/29 08:15:09;;;;;;;11.82;2.17;;;18.80;99.90;;;;;;5085460;28;20035;-75
2021/07/29 08:17:35;;;;;;;5.68;1.40;;;18.70;99.90;;;;;;5052843;28;20035;-75
2021/07/29 08:20:02;;;;;;;11.63;1.55;;;18.50;99.90;;;;;;5085803;28;20814;-75
2021/07/29 08:22:28;;;;;;;10.32;1.80;;;18.40;99.90;;;;;;5086798;28;20036;-75
2021/07/29 08:24:55;;;;;;;10.05;1.73;;;18.50;99.90;;;;;;5084882;28;20032;-75
2021/07/29 08:27:21;;;;;;;9.23;1.33;;;18.70;99.90;;;;;;5086802;28;20039;-76
2021/07/29 08:29:48;;;;;;;5.93;1.40;;;19.00;99.30;;;;;;5085876;28;20038;-76
2021/07/29 08:32:15;;;;;;;6.97;0.90;;;19.20;99.40;;;;;;5086122;28;20043;-76
2021/07/29 08:34:41;;;;;;;11.07;2.03;;;19.40;99.20;;;;;;5085018;28;20027;-77
2021/07/29 08:37:08;;;;;;;7.03;1.50;;;19.70;99.00;;;;;;5086292;28;20505;-76
2021/07/29 08:39:34;;;;;;;10.38;1.73;;;19.80;98.20;;;;;;5069216;28;20474;-75
2021/07/29 08:42:00;;;;;;;9.98;1.75;;;19.90;96.90;;;;;;5068480;28;20047;-75
2021/07/29 08:44:27;;;;;;;8.20;1.83;;;19.90;97.00;;;;;;5067821;28;20051;-75
2021/07/29 08:46:54;;;;;;;7.65;1.25;;;19.90;97.20;;;;;;5104807;28;20395;-76
2021/07/29 08:49:26;;;;;;;6.07;1.30;;;19.80;96.80;;;;;;5085026;28;20058;-76
2021/07/29 08:51:52;;;;;;;9.10;1.38;;;19.90;96.40;;;;;;5085056;28;20055;-76
2021/07/29 08:54:19;;;;;;;9.05;1.10;;;19.90;96.10;;;;;;5085353;28;20419;-76
2021/07/29 08:56:45;;;;;;;8.75;1.30;;;20.00;96.40;;;;;;5104325;28;20026;-76
2021/07/29 08:59:12;;;;;;;8.82;1.58;;;20.20;96.40;;;;;;5068934;28;20023;-76
2021/07/29 09:01:43;;;;;;;7.90;1.80;;;20.30;95.80;;;;;;5104357;28;20403;-76
2021/07/29 09:04:14;;;;;;;6.50;1.20;;;20.50;95.60;;;;;;5069216;28;20051;-75
2021/07/29 09:07:02;;;;;;;5.00;0.95;;;20.70;95.50;;;;;;5085662;28;20035;-79
2021/07/29 09:09:45;;;;;;;7.85;1.20;;;21.00;95.30;;;;;;5085865;28;20043;-78
2021/07/29 09:12:16;;;;;;;6.07;1.00;;;21.20;95.00;;;;;;5111583;27;20043;-79
2021/07/29 09:14:43;;;;;;;7.78;1.45;;;21.10;94.20;;;;;;5072107;28;20046;-79
2021/07/29 09:17:11;;;;;;;7.32;1.00;;;21.00;93.70;;;;;;5090090;28;20039;-78
2021/07/29 09:19:45;;;;;;;4.95;0.95;;;20.80;93.70;;;;;;5074322;28;20130;-78
2021/07/29 09:22:20;;;;;;;7.00;1.27;;;20.70;93.60;;;;;;5107532;28;20031;-78
2021/07/29 09:25:08;;;;;;;9.90;1.58;;;20.70;93.30;;;;;;5106872;28;20031;-78
2021/07/29 09:27:37;;;;;;;6.13;1.00;;;20.90;93.00;;;;;;5108590;28;20046;-78
2021/07/29 09:30:12;;;;;;;7.80;1.45;;;20.80;92.30;;;;;;5089649;28;20043;-79
2021/07/29 09:33:07;;;;;;;5.90;1.02;;;20.70;92.60;;;;;;5072009;28;20043;-78
2021/07/29 09:35:35;;;;;;;5.88;1.17;;;20.80;92.50;;;;;;5106664;28;20023;-79
2021/07/29 09:38:10;;;;;;;6.40;0.93;;;20.90;91.40;;;;;;5090083;28;20038;-78
2021/07/29 09:40:48;;;;;;;5.03;0.95;;;21.20;91.50;;;;;;5089077;28;20039;-78
2021/07/29 09:43:18;;;;;;;4.78;0.90;;;21.40;91.00;;;;;;5108264;28;20035;-78
2021/07/29 09:45:55;;;;;;;6.28;0.90;;;21.60;90.60;;;;;;5106696;28;20410;-78
2021/07/29 09:48:23;;;;;;;6.63;1.10;;;21.70;90.60;;;;;;5108026;28;20035;-78
2021/07/29 09:50:55;;;;;;;8.25;1.20;;;21.70;89.60;;;;;;5106690;28;20035;-78
2021/07/29 09:53:25;;;;;;;6.07;1.15;;;21.80;88.90;;;;;;5072744;28;20130;-78
2021/07/29 09:55:52;;;;;;;5.53;1.02;;;22.00;87.90;;;;;;5085047;28;20042;-78
2021/07/29 09:58:18;;;;;;;6.93;0.88;;;22.30;86.90;;;;;;5056101;28;20063;-78
2021/07/29 10:00:45;;;;;;;7.05;0.90;;;22.30;85.80;;;;;;5071845;28;20039;-78
2021/07/29 10:03:13;;;;;;;8.77;1.20;;;22.20;85.20;;;;;;5089738;28;20494;-78
2021/07/29 10:06:00;;;;;;;9.02;1.25;;;22.20;85.30;;;;;;5087717;28;20051;-77
2021/07/29 10:08:54;;;;;;;5.90;1.00;;;22.00;85.10;;;;;;5105658;28;20035;-78
2021/07/29 10:11:24;;;;;;;5.82;1.15;;;21.90;85.00;;;;;;5071150;28;20061;-78
2021/07/29 10:13:51;;;;;;;9.20;1.30;;;21.80;85.80;;;;;;5088758;28;20498;-78
2021/07/29 10:16:48;;;;;;;9.07;1.45;;;21.60;86.50;;;;;;5087877;28;20040;-78
2021/07/29 10:19:18;;;;;;;7.32;1.20;;;21.50;86.80;;;;;;5106174;28;20046;-79
2021/07/29 10:21:44;;;;;;;6.38;1.40;;;21.30;86.80;;;;;;5087793;28;20035;-78
2021/07/29 10:24:13;;;;;;;9.00;1.45;;;21.30;88.50;;;;;;5106797;28;20039;-78
2021/07/29 10:27:01;;;;;;;9.50;1.83;;;21.30;89.40;;;;;;5106622;28;20024;-78
2021/07/29 10:29:30;;;;;;;10.65;1.70;;;21.30;89.90;;;;;;5088416;28;20051;-79
2021/07/29 10:32:11;;;;;;;3.60;0.90;;;21.30;87.90;;;;;;5106969;28;20394;-78
2021/07/29 10:34:39;;;;;;;7.23;1.10;;;21.20;88.70;;;;;;5087349;28;20039;-79
2021/07/29 10:37:09;;;;;;;6.32;1.30;;;21.10;90.20;;;;;;5088899;28;20047;-79
2021/07/29 10:40:08;;;;;;;8.63;1.40;;;20.80;90.70;;;;;;5087529;28;20956;-78
2021/07/29 10:42:34;;;;;;;4.93;1.10;;;20.40;92.60;;;;;;5036109;28;20390;-77
2021/07/29 10:45:01;;;;;;;5.43;1.33;;;19.80;93.80;;;;;;5053218;28;20037;-78
2021/07/29 10:47:39;;;;;;;7.50;1.25;;;19.30;95.30;;;;;;5071106;28;20051;-78
2021/07/29 10:50:07;;;;;;;6.85;1.25;;;19.10;96.50;;;;;;5106325;28;20031;-78
2021/07/29 10:52:35;;;;;;;8.20;1.40;;;18.90;96.80;;;;;;5088146;28;20390;-78
2021/07/29 10:55:02;;;;;;;15.02;2.15;;;18.70;97.40;;;;;;5087155;28;20027;-79
2021/07/29 10:57:29;;;;;;;10.77;2.03;;;18.40;98.60;;;;;;5087802;28;20054;-79
2021/07/29 10:59:58;;;;;;;11.13;2.67;;;17.80;99.90;;;;;;5070438;28;20040;-79
2021/07/29 11:02:51;;;;;;;9.43;1.67;;;17.40;99.90;;;;;;5104570;28;20038;-79
2021/07/29 11:05:40;;;;;;;6.80;1.70;;;17.00;99.90;;;;;;5087911;28;20047;-79
2021/07/29 11:08:07;;;;;;;8.65;1.98;;;16.90;99.90;;;;;;5071377;28;20039;-79
2021/07/29 11:10:34;;;;;;;8.07;1.50;;;17.00;99.90;;;;;;5092161;28;20038;-78
2021/07/29 11:13:01;;;;;;;9.45;2.10;;;17.10;99.90;;;;;;5068887;28;20059;-78
2021/07/29 11:15:27;;;;;;;9.57;2.17;;;17.40;99.90;;;;;;5086285;28;20046;-78
2021/07/29 11:17:54;;;;;;;13.65;2.72;;;17.90;99.90;;;;;;5071053;28;20031;-78
2021/07/29 11:20:28;;;;;;;10.45;2.70;;;18.40;99.90;;;;;;5066060;28;20531;-78
2021/07/29 11:22:55;;;;;;;8.65;2.25;;;18.70;99.90;;;;;;5106180;28;20035;-79
2021/07/29 11:25:21;;;;;;;12.68;2.97;;;18.70;99.90;;;;;;5105341;28;20036;-79
2021/07/29 11:27:48;;;;;;;12.02;3.42;;;18.80;99.90;;;;;;5106054;28;20050;-78
2021/07/29 11:30:14;;;;;;;11.63;2.90;;;19.00;99.90;;;;;;5070349;28;20051;-78
2021/07/29 11:32:43;;;;;;;12.50;2.70;;;19.10;99.90;;;;;;5070027;28;20044;-79
2021/07/29 11:35:14;;;;;;;11.80;2.38;;;19.10;99.90;;;;;;5069010;28;20043;-78
2021/07/29 11:37:42;;;;;;;6.93;2.13;;;18.90;99.90;;;;;;5087194;28;20043;-78
2021/07/29 11:40:23;;;;;;;8.98;2.05;;;18.90;99.90;;;;;;5070064;28;20048;-78
2021/07/29 11:42:51;;;;;;;8.25;1.88;;;19.20;99.90;;;;;;5105531;28;20032;-77
2021/07/29 11:45:33;;;;;;;6.43;2.00;;;19.50;99.90;;;;;;5084912;28;20411;-78
2021/07/29 11:48:00;;;;;;;13.02;2.60;;;19.70;99.90;;;;;;5100936;28;20036;-76
2021/07/29 11:50:37;;;;;;;10.15;1.80;;;19.60;99.90;;;;;;5104292;28;20504;-76
2021/07/29 11:53:04;;;;;;;9.57;1.90;;;19.30;99.90;;;;;;5084176;28;20047;-76
2021/07/29 11:55:31;;;;;;;8.23;1.63;;;19.10;99.90;;;;;;5084959;28;20043;-75
2021/07/29 11:58:13;;;;;;;10.05;2.42;;;19.10;99.90;;;;;;5083698;28;20090;-75
2021/07/29 12:00:40;;;;;;;9.07;2.30;;;19.20;99.90;;;;;;5085334;28;20405;-76
2021/07/29 12:03:06;;;;;;;9.23;1.95;;;19.40;99.90;;;;;;5085789;28;20055;-75
2021/07/29 12:05:34;;;;;;;9.63;2.38;;;19.70;99.90;;;;;;5048752;28;20113;-76
2021/07/29 12:08:03;;;;;;;6.57;1.92;;;20.50;99.90;;;;;;5102803;28;20031;-76
2021/07/29 12:10:31;;;;;;;8.70;1.90;;;21.20;99.90;;;;;;5085561;28;20027;-75
2021/07/29 12:12:58;;;;;;;6.70;1.50;;;21.90;99.60;;;;;;5087578;28;20035;-76
2021/07/29 12:15:25;;;;;;;6.40;1.38;;;22.60;98.60;;;;;;5051208;28;20402;-76
2021/07/29 12:17:51;;;;;;;5.07;1.40;;;23.30;96.50;;;;;;5085850;28;20023;-75
2021/07/29 12:20:19;;;;;;;7.72;1.88;;;23.80;95.60;;;;;;5055571;28;20047;-75
2021/07/29 12:22:45;;;;;;;5.47;1.40;;;24.30;94.80;;;;;;5081897;28;20050;-78
2021/07/29 12:25:29;;;;;;;6.55;1.60;;;24.90;93.30;;;;;;5104428;28;20356;-79
2021/07/29 12:27:56;;;;;;;6.72;1.60;;;25.30;91.20;;;;;;5068880;28;20044;-78
2021/07/29 12:30:36;;;;;;;6.43;1.60;;;25.40;90.00;;;;;;5086741;28;20034;-79
2021/07/29 12:33:14;;;;;;;4.75;0.93;;;25.40;83.70;;;;;;5058402;28;20031;-77
2021/07/29 12:35:43;;;;;;;6.05;0.90;;;24.90;85.90;;;;;;5083113;28;20043;-77
2021/07/29 12:38:10;;;;;;;8.48;1.27;;;24.60;88.00;;;;;;5068659;28;20035;-77
2021/07/29 12:40:36;;;;;;;6.22;0.98;;;24.80;88.20;;;;;;5050703;28;20044;-78
2021/07/29 12:43:26;;;;;;;4.07;0.80;;;25.20;83.00;;;;;;5104221;28;20188;-77
2021/07/29 12:45:54;;;;;;;5.50;1.70;;;24.80;81.90;;;;;;5066152;28;20043;-77
2021/07/29 12:48:28;;;;;;;5.35;1.30;;;24.30;82.20;;;;;;5104628;28;20031;-77
2021/07/29 12:50:56;;;;;;;8.13;1.48;;;23.50;85.00;;;;;;5084026;28;20035;-77